sensor_id;sensor_type;location;lat;lon;timestamp;temperature;humidity
7512;DHT22;9999;48.780;9.146;2023-08-08T00:01:35;13.00;99.90
7512;DHT22;9999;48.780;9.146;2023-08-08T00:04:02;13.00;99.90
7512;DHT22;9999;48.780;9.146;2023-08-08T00:06:29;12.90;99.90
7512;DHT22;9999;48.780;9.146;2023-08-08T00:08:55;13.00;99.90
7512;DHT22;9999;48.780;9.146;2023-08-08T00:11:22;13.00;99.90
7512;DHT22;9999;48.780;9.146;2023-08-08T00:13:49;13.10;99.90
7512;DHT22;9999;48.780;9.146;2023-08-08T00:16:17;13.00;99.90
7512;DHT22;9999;48.780;9.146;2023-08-08T00:18:44;13.10;99.90
7512;DHT22;9999;48.780;9.146;2023-08-08T00:21:11;13.10;99.90
7512;DHT22;9999;48.780;9.146;2023-08-08T00:23:37;13.10;99.90
7512;DHT22;9999;48.780;9.146;2023-08-08T00:26:04;13.20;99.90
7512;DHT22;9999;48.780;9.146;2023-08-08T00:28:31;13.20;99.90
7512;DHT22;9999;48.780;9.146;2023-08-08T00:30:58;13.20;99.90
7512;DHT22;9999;48.780;9.146;2023-08-08T00:33:26;13.20;99.90
7512;DHT22;9999;48.780;9.146;2023-08-08T00:35:53;13.20;99.90
7512;DHT22;9999;48.780;9.146;2023-08-08T00:38:20;13.30;99.90
7512;DHT22;9999;48.780;9.146;2023-08-08T00:40:46;13.20;99.90
7512;DHT22;9999;48.780;9.146;2023-08-08T00:43:13;13.30;99.90
7512;DHT22;9999;48.780;9.146;2023-08-08T00:45:42;13.30;99.90
7512;DHT22;9999;48.780;9.146;2023-08-08T00:48:09;13.30;99.90
7512;DHT22;9999;48.780;9.146;2023-08-08T00:50:37;13.20;99.90
7512;DHT22;9999;48.780;9.146;2023-08-08T00:53:04;13.20;99.90
7512;DHT22;9999;48.780;9.146;2023-08-08T00:55:31;13.20;99.90
7512;DHT22;9999;48.780;9.146;2023-08-08T00:57:59;13.20;99.90
7512;DHT22;9999;48.780;9.146;2023-08-08T01:00:26;13.30;99.90
7512;DHT22;9999;48.780;9.146;2023-08-08T01:02:52;13.30;99.90
7512;DHT22;9999;48.780;9.146;2023-08-08T01:05:19;13.30;99.90
7512;DHT22;9999;48.780;9.146;2023-08-08T01:07:53;13.40;99.90
7512;DHT22;9999;48.780;9.146;2023-08-08T01:10:24;13.30;99.90
7512;DHT22;9999;48.780;9.146;2023-08-08T01:12:54;13.40;99.90
7512;DHT22;9999;48.780;9.146;2023-08-08T01:15:22;13.30;99.90
7512;DHT22;9999;48.780;9.146;2023-08-08T01:17:51;13.30;99.90
7512;DHT22;9999;48.780;9.146;2023-08-08T01:20:19;13.30;99.90
7512;DHT22;9999;48.780;9.146;2023-08-08T01:23:01;13.40;99.90
7512;DHT22;9999;48.780;9.146;2023-08-08T01:25:31;13.40;99.90
7512;DHT22;9999;48.780;9.146;2023-08-08T01:27:58;13.40;99.90
7512;DHT22;9999;48.780;9.146;2023-08-08T01:30:25;13.30;99.90
7512;DHT22;9999;48.780;9.146;2023-08-08T01:32:52;13.30;99.90
7512;DHT22;9999;48.780;9.146;2023-08-08T01:35:19;13.40;99.90
7512;DHT22;9999;48.780;9.146;2023-08-08T01:37:51;13.40;99.90
7512;DHT22;9999;48.780;9.146;2023-08-08T01:40:19;13.40;99.90
7512;DHT22;9999;48.780;9.146;2023-08-08T01:42:48;13.40;99.90
7512;DHT22;9999;48.780;9.146;2023-08-08T01:45:16;13.50;99.90
7512;DHT22;9999;48.780;9.146;2023-08-08T01:47:43;13.40;99.90
7512;DHT22;9999;48.780;9.146;2023-08-08T01:50:10;13.40;99.90
7512;DHT22;9999;48.780;9.146;2023-08-08T01:52:36;13.50;99.90
7512;DHT22;9999;48.780;9.146;2023-08-08T01:55:04;13.50;99.90
7512;DHT22;9999;48.780;9.146;2023-08-08T01:57:31;13.50;99.90
7512;DHT22;9999;48.780;9.146;2023-08-08T02:00:00;13.50;99.90
7512;DHT22;9999;48.780;9.146;2023-08-08T02:02:27;13.60;99.90
7512;DHT22;9999;48.780;9.146;2023-08-08T02:04:54;13.60;99.90
7512;DHT22;9999;48.780;9.146;2023-08-08T02:07:21;13.60;99.90
7512;DHT22;9999;48.780;9.146;2023-08-08T02:09:48;13.60;99.90
7512;DHT22;9999;48.780;9.146;2023-08-08T02:12:17;13.50;99.90
7512;DHT22;9999;48.780;9.146;2023-08-08T02:14:47;13.60;99.90
7512;DHT22;9999;48.780;9.146;2023-08-08T02:17:15;13.50;99.90
7512;DHT22;9999;48.780;9.146;2023-08-08T02:19:42;13.60;99.90
7512;DHT22;9999;48.780;9.146;2023-08-08T02:22:09;13.50;99.90
7512;DHT22;9999;48.780;9.146;2023-08-08T02:24:36;13.40;99.90
7512;DHT22;9999;48.780;9.146;2023-08-08T02:27:06;13.40;99.90
7512;DHT22;9999;48.780;9.146;2023-08-08T02:29:33;13.40;99.90
7512;DHT22;9999;48.780;9.146;2023-08-08T02:32:00;13.40;99.90
7512;DHT22;9999;48.780;9.146;2023-08-08T02:34:28;13.40;99.90
7512;DHT22;9999;48.780;9.146;2023-08-08T02:36:55;13.30;99.90
7512;DHT22;9999;48.780;9.146;2023-08-08T02:39:22;13.20;99.90
7512;DHT22;9999;48.780;9.146;2023-08-08T02:41:49;13.20;99.90
7512;DHT22;9999;48.780;9.146;2023-08-08T02:44:16;13.20;99.90
7512;DHT22;9999;48.780;9.146;2023-08-08T02:46:45;13.20;99.90
7512;DHT22;9999;48.780;9.146;2023-08-08T02:49:12;13.10;99.90
7512;DHT22;9999;48.780;9.146;2023-08-08T02:51:40;13.20;99.90
7512;DHT22;9999;48.780;9.146;2023-08-08T02:54:07;13.10;99.90
7512;DHT22;9999;48.780;9.146;2023-08-08T02:56:36;13.20;99.90
7512;DHT22;9999;48.780;9.146;2023-08-08T02:59:03;13.10;99.90
7512;DHT22;9999;48.780;9.146;2023-08-08T03:01:31;13.10;99.90
7512;DHT22;9999;48.780;9.146;2023-08-08T03:04:00;13.00;99.90
7512;DHT22;9999;48.780;9.146;2023-08-08T03:06:27;13.10;99.90
7512;DHT22;9999;48.780;9.146;2023-08-08T03:08:55;13.00;99.90
7512;DHT22;9999;48.780;9.146;2023-08-08T03:11:22;13.00;99.90
7512;DHT22;9999;48.780;9.146;2023-08-08T03:13:49;13.00;99.90
7512;DHT22;9999;48.780;9.146;2023-08-08T03:16:17;13.00;99.90
7512;DHT22;9999;48.780;9.146;2023-08-08T03:18:45;12.90;99.90
7512;DHT22;9999;48.780;9.146;2023-08-08T03:21:11;12.90;99.90
7512;DHT22;9999;48.780;9.146;2023-08-08T03:23:39;12.90;99.90
7512;DHT22;9999;48.780;9.146;2023-08-08T03:26:07;12.90;99.90
7512;DHT22;9999;48.780;9.146;2023-08-08T03:28:35;12.90;99.90
7512;DHT22;9999;48.780;9.146;2023-08-08T03:31:03;12.90;99.90
7512;DHT22;9999;48.780;9.146;2023-08-08T03:33:31;12.80;99.90
7512;DHT22;9999;48.780;9.146;2023-08-08T03:35:59;12.80;99.90
7512;DHT22;9999;48.780;9.146;2023-08-08T03:38:27;12.80;99.90
7512;DHT22;9999;48.780;9.146;2023-08-08T03:40:54;12.90;99.90
7512;DHT22;9999;48.780;9.146;2023-08-08T03:43:23;12.90;99.90
7512;DHT22;9999;48.780;9.146;2023-08-08T03:45:50;12.90;99.90
7512;DHT22;9999;48.780;9.146;2023-08-08T03:48:17;12.90;99.90
7512;DHT22;9999;48.780;9.146;2023-08-08T03:50:43;13.00;99.90
7512;DHT22;9999;48.780;9.146;2023-08-08T03:53:12;13.00;99.90
7512;DHT22;9999;48.780;9.146;2023-08-08T03:55:38;13.00;99.90
7512;DHT22;9999;48.780;9.146;2023-08-08T03:58:05;13.00;99.90
7512;DHT22;9999;48.780;9.146;2023-08-08T04:00:34;13.00;99.90
7512;DHT22;9999;48.780;9.146;2023-08-08T04:03:01;13.00;99.90
7512;DHT22;9999;48.780;9.146;2023-08-08T04:05:28;13.10;99.90
7512;DHT22;9999;48.780;9.146;2023-08-08T04:07:55;13.10;99.90
7512;DHT22;9999;48.780;9.146;2023-08-08T04:10:22;13.10;99.90
7512;DHT22;9999;48.780;9.146;2023-08-08T04:12:48;13.00;99.90
7512;DHT22;9999;48.780;9.146;2023-08-08T04:15:15;13.10;99.90
7512;DHT22;9999;48.780;9.146;2023-08-08T04:17:43;13.10;99.90
7512;DHT22;9999;48.780;9.146;2023-08-08T04:20:11;13.10;99.90
7512;DHT22;9999;48.780;9.146;2023-08-08T04:22:38;13.10;99.90
7512;DHT22;9999;48.780;9.146;2023-08-08T04:25:06;13.00;99.90
7512;DHT22;9999;48.780;9.146;2023-08-08T04:27:33;13.00;99.90
7512;DHT22;9999;48.780;9.146;2023-08-08T04:30:00;13.10;99.90
7512;DHT22;9999;48.780;9.146;2023-08-08T04:32:27;13.00;99.90
7512;DHT22;9999;48.780;9.146;2023-08-08T04:34:55;13.10;99.90
7512;DHT22;9999;48.780;9.146;2023-08-08T04:37:22;13.10;99.90
7512;DHT22;9999;48.780;9.146;2023-08-08T04:39:49;13.10;99.90
7512;DHT22;9999;48.780;9.146;2023-08-08T04:42:16;13.20;99.90
7512;DHT22;9999;48.780;9.146;2023-08-08T04:44:42;13.20;99.90
7512;DHT22;9999;48.780;9.146;2023-08-08T04:47:09;13.20;99.90
7512;DHT22;9999;48.780;9.146;2023-08-08T04:49:36;13.30;99.90
7512;DHT22;9999;48.780;9.146;2023-08-08T04:52:05;13.30;99.90
7512;DHT22;9999;48.780;9.146;2023-08-08T04:54:32;13.20;99.90
7512;DHT22;9999;48.780;9.146;2023-08-08T04:56:59;13.30;99.90
7512;DHT22;9999;48.780;9.146;2023-08-08T04:59:25;13.20;99.90
7512;DHT22;9999;48.780;9.146;2023-08-08T05:01:52;13.20;99.90
7512;DHT22;9999;48.780;9.146;2023-08-08T05:04:19;13.20;99.90
7512;DHT22;9999;48.780;9.146;2023-08-08T05:06:46;13.20;99.90
7512;DHT22;9999;48.780;9.146;2023-08-08T05:09:14;13.30;99.90
7512;DHT22;9999;48.780;9.146;2023-08-08T05:11:41;13.30;99.90
7512;DHT22;9999;48.780;9.146;2023-08-08T05:14:08;13.30;99.90
7512;DHT22;9999;48.780;9.146;2023-08-08T05:16:34;13.30;99.90
7512;DHT22;9999;48.780;9.146;2023-08-08T05:19:01;13.20;99.90
7512;DHT22;9999;48.780;9.146;2023-08-08T05:21:28;13.30;99.90
7512;DHT22;9999;48.780;9.146;2023-08-08T05:23:55;13.30;99.90
7512;DHT22;9999;48.780;9.146;2023-08-08T05:26:23;13.30;99.90
7512;DHT22;9999;48.780;9.146;2023-08-08T05:28:49;13.20;99.90
7512;DHT22;9999;48.780;9.146;2023-08-08T05:31:16;13.30;99.90
7512;DHT22;9999;48.780;9.146;2023-08-08T05:33:43;13.40;99.90
7512;DHT22;9999;48.780;9.146;2023-08-08T05:36:10;13.40;99.90
7512;DHT22;9999;48.780;9.146;2023-08-08T05:38:37;13.50;99.90
7512;DHT22;9999;48.780;9.146;2023-08-08T05:41:03;13.50;99.90
7512;DHT22;9999;48.780;9.146;2023-08-08T05:43:32;13.50;99.90
7512;DHT22;9999;48.780;9.146;2023-08-08T05:45:58;13.60;99.90
7512;DHT22;9999;48.780;9.146;2023-08-08T05:48:25;13.70;99.90
7512;DHT22;9999;48.780;9.146;2023-08-08T05:50:52;13.70;99.90
7512;DHT22;9999;48.780;9.146;2023-08-08T05:53:19;13.80;99.90
7512;DHT22;9999;48.780;9.146;2023-08-08T05:55:46;13.80;99.90
7512;DHT22;9999;48.780;9.146;2023-08-08T05:58:12;13.80;99.90
7512;DHT22;9999;48.780;9.146;2023-08-08T06:00:41;13.90;99.90
7512;DHT22;9999;48.780;9.146;2023-08-08T06:03:08;14.00;99.90
7512;DHT22;9999;48.780;9.146;2023-08-08T06:05:35;14.00;99.90
7512;DHT22;9999;48.780;9.146;2023-08-08T06:08:01;14.10;99.90
7512;DHT22;9999;48.780;9.146;2023-08-08T06:10:29;14.10;99.90
7512;DHT22;9999;48.780;9.146;2023-08-08T06:12:56;14.20;99.90
7512;DHT22;9999;48.780;9.146;2023-08-08T06:15:23;14.30;99.90
7512;DHT22;9999;48.780;9.146;2023-08-08T06:17:51;14.40;99.90
7512;DHT22;9999;48.780;9.146;2023-08-08T06:20:18;14.50;99.90
7512;DHT22;9999;48.780;9.146;2023-08-08T06:22:45;14.60;99.90
7512;DHT22;9999;48.780;9.146;2023-08-08T06:25:12;14.70;99.90
7512;DHT22;9999;48.780;9.146;2023-08-08T06:27:38;14.80;99.90
7512;DHT22;9999;48.780;9.146;2023-08-08T06:30:06;14.90;99.90
7512;DHT22;9999;48.780;9.146;2023-08-08T06:32:34;15.00;99.90
7512;DHT22;9999;48.780;9.146;2023-08-08T06:35:02;15.20;99.90
7512;DHT22;9999;48.780;9.146;2023-08-08T06:37:29;15.30;99.90
7512;DHT22;9999;48.780;9.146;2023-08-08T06:39:56;15.50;99.90
7512;DHT22;9999;48.780;9.146;2023-08-08T06:42:23;15.50;99.90
7512;DHT22;9999;48.780;9.146;2023-08-08T06:44:55;15.60;99.90
7512;DHT22;9999;48.780;9.146;2023-08-08T06:47:22;15.60;99.90
7512;DHT22;9999;48.780;9.146;2023-08-08T06:49:48;15.70;99.90
7512;DHT22;9999;48.780;9.146;2023-08-08T06:52:17;15.80;99.90
7512;DHT22;9999;48.780;9.146;2023-08-08T06:54:43;15.90;99.90
7512;DHT22;9999;48.780;9.146;2023-08-08T06:57:10;16.00;99.90
7512;DHT22;9999;48.780;9.146;2023-08-08T06:59:37;16.10;99.90
7512;DHT22;9999;48.780;9.146;2023-08-08T07:02:04;16.20;99.90
7512;DHT22;9999;48.780;9.146;2023-08-08T07:04:31;16.40;99.90
7512;DHT22;9999;48.780;9.146;2023-08-08T07:06:57;16.70;99.90
7512;DHT22;9999;48.780;9.146;2023-08-08T07:09:26;16.80;99.90
7512;DHT22;9999;48.780;9.146;2023-08-08T07:11:52;16.70;99.90
7512;DHT22;9999;48.780;9.146;2023-08-08T07:14:19;16.90;99.90
7512;DHT22;9999;48.780;9.146;2023-08-08T07:16:46;17.00;99.90
7512;DHT22;9999;48.780;9.146;2023-08-08T07:19:14;17.20;99.90
7512;DHT22;9999;48.780;9.146;2023-08-08T07:21:41;17.40;99.90
7512;DHT22;9999;48.780;9.146;2023-08-08T07:24:07;17.50;99.90
7512;DHT22;9999;48.780;9.146;2023-08-08T07:26:36;17.60;99.90
7512;DHT22;9999;48.780;9.146;2023-08-08T07:29:03;18.10;99.90
7512;DHT22;9999;48.780;9.146;2023-08-08T07:31:31;18.50;99.90
7512;DHT22;9999;48.780;9.146;2023-08-08T07:33:58;18.70;99.90
7512;DHT22;9999;48.780;9.146;2023-08-08T07:36:25;19.00;99.90
7512;DHT22;9999;48.780;9.146;2023-08-08T07:38:51;19.10;99.90
7512;DHT22;9999;48.780;9.146;2023-08-08T07:41:21;19.00;99.90
7512;DHT22;9999;48.780;9.146;2023-08-08T07:43:51;19.10;99.90
7512;DHT22;9999;48.780;9.146;2023-08-08T07:46:17;19.00;99.90
7512;DHT22;9999;48.780;9.146;2023-08-08T07:48:44;19.30;99.90
7512;DHT22;9999;48.780;9.146;2023-08-08T07:51:11;19.30;99.90
7512;DHT22;9999;48.780;9.146;2023-08-08T07:53:38;19.90;99.90
7512;DHT22;9999;48.780;9.146;2023-08-08T07:56:04;20.00;99.90
7512;DHT22;9999;48.780;9.146;2023-08-08T07:58:32;20.20;99.90
7512;DHT22;9999;48.780;9.146;2023-08-08T08:01:00;19.90;99.90
7512;DHT22;9999;48.780;9.146;2023-08-08T08:03:33;19.40;99.90
7512;DHT22;9999;48.780;9.146;2023-08-08T08:06:00;19.20;99.90
7512;DHT22;9999;48.780;9.146;2023-08-08T08:08:27;19.10;99.90
7512;DHT22;9999;48.780;9.146;2023-08-08T08:10:54;19.30;99.90
7512;DHT22;9999;48.780;9.146;2023-08-08T08:13:21;19.40;99.90
7512;DHT22;9999;48.780;9.146;2023-08-08T08:15:47;19.50;99.90
7512;DHT22;9999;48.780;9.146;2023-08-08T08:18:16;19.40;99.90
7512;DHT22;9999;48.780;9.146;2023-08-08T08:20:43;19.40;99.90
7512;DHT22;9999;48.780;9.146;2023-08-08T08:23:10;19.20;99.90
7512;DHT22;9999;48.780;9.146;2023-08-08T08:25:37;19.30;99.90
7512;DHT22;9999;48.780;9.146;2023-08-08T08:28:04;19.30;99.90
7512;DHT22;9999;48.780;9.146;2023-08-08T08:30:31;19.20;99.90
7512;DHT22;9999;48.780;9.146;2023-08-08T08:32:58;19.20;99.90
7512;DHT22;9999;48.780;9.146;2023-08-08T08:35:27;19.00;99.90
7512;DHT22;9999;48.780;9.146;2023-08-08T08:37:54;19.20;99.90
7512;DHT22;9999;48.780;9.146;2023-08-08T08:40:21;19.20;99.90
7512;DHT22;9999;48.780;9.146;2023-08-08T08:42:48;19.20;99.90
7512;DHT22;9999;48.780;9.146;2023-08-08T08:45:18;19.30;99.90
7512;DHT22;9999;48.780;9.146;2023-08-08T08:47:46;19.40;99.90
7512;DHT22;9999;48.780;9.146;2023-08-08T08:50:15;19.30;99.90
7512;DHT22;9999;48.780;9.146;2023-08-08T08:52:44;19.20;99.90
7512;DHT22;9999;48.780;9.146;2023-08-08T08:55:11;19.20;99.90
7512;DHT22;9999;48.780;9.146;2023-08-08T08:57:37;19.30;99.90
7512;DHT22;9999;48.780;9.146;2023-08-08T09:00:06;19.40;99.90
7512;DHT22;9999;48.780;9.146;2023-08-08T09:02:33;19.50;99.90
7512;DHT22;9999;48.780;9.146;2023-08-08T09:05:00;19.60;99.90
7512;DHT22;9999;48.780;9.146;2023-08-08T09:07:31;19.70;99.90
7512;DHT22;9999;48.780;9.146;2023-08-08T09:10:00;19.70;99.90
7512;DHT22;9999;48.780;9.146;2023-08-08T09:12:27;19.60;99.90
7512;DHT22;9999;48.780;9.146;2023-08-08T09:14:55;19.70;99.90
7512;DHT22;9999;48.780;9.146;2023-08-08T09:17:24;19.90;99.90
7512;DHT22;9999;48.780;9.146;2023-08-08T09:19:53;20.00;99.90
7512;DHT22;9999;48.780;9.146;2023-08-08T09:22:20;20.40;99.90
7512;DHT22;9999;48.780;9.146;2023-08-08T09:24:47;20.50;99.90
7512;DHT22;9999;48.780;9.146;2023-08-08T09:27:15;20.40;99.90
7512;DHT22;9999;48.780;9.146;2023-08-08T09:29:42;20.30;99.90
7512;DHT22;9999;48.780;9.146;2023-08-08T09:32:09;20.10;99.90
7512;DHT22;9999;48.780;9.146;2023-08-08T09:34:37;20.10;99.90
7512;DHT22;9999;48.780;9.146;2023-08-08T09:37:06;20.10;99.90
7512;DHT22;9999;48.780;9.146;2023-08-08T09:39:32;20.10;99.90
7512;DHT22;9999;48.780;9.146;2023-08-08T09:42:01;20.30;99.90
7512;DHT22;9999;48.780;9.146;2023-08-08T09:44:31;20.50;99.90
7512;DHT22;9999;48.780;9.146;2023-08-08T09:47:00;20.30;99.90
7512;DHT22;9999;48.780;9.146;2023-08-08T09:49:28;20.30;99.90
7512;DHT22;9999;48.780;9.146;2023-08-08T09:51:58;20.10;99.90
7512;DHT22;9999;48.780;9.146;2023-08-08T09:54:25;20.30;99.90
7512;DHT22;9999;48.780;9.146;2023-08-08T09:56:53;20.30;99.90
7512;DHT22;9999;48.780;9.146;2023-08-08T09:59:20;20.50;99.90
7512;DHT22;9999;48.780;9.146;2023-08-08T10:01:49;20.90;99.90
7512;DHT22;9999;48.780;9.146;2023-08-08T10:04:17;21.00;99.90
7512;DHT22;9999;48.780;9.146;2023-08-08T10:06:44;21.10;99.90
7512;DHT22;9999;48.780;9.146;2023-08-08T10:09:12;21.00;99.90
7512;DHT22;9999;48.780;9.146;2023-08-08T10:11:39;20.70;99.90
7512;DHT22;9999;48.780;9.146;2023-08-08T10:14:09;20.60;99.90
7512;DHT22;9999;48.780;9.146;2023-08-08T10:16:37;20.50;99.90
7512;DHT22;9999;48.780;9.146;2023-08-08T10:19:05;20.60;99.90
7512;DHT22;9999;48.780;9.146;2023-08-08T10:21:34;20.80;99.90
7512;DHT22;9999;48.780;9.146;2023-08-08T10:24:03;21.30;99.90
7512;DHT22;9999;48.780;9.146;2023-08-08T10:26:31;21.50;99.90
7512;DHT22;9999;48.780;9.146;2023-08-08T10:28:59;21.60;96.80
7512;DHT22;9999;48.780;9.146;2023-08-08T10:31:26;21.70;98.80
7512;DHT22;9999;48.780;9.146;2023-08-08T10:34:02;21.90;97.40
7512;DHT22;9999;48.780;9.146;2023-08-08T10:36:47;22.10;95.20
7512;DHT22;9999;48.780;9.146;2023-08-08T10:39:18;22.40;97.90
7512;DHT22;9999;48.780;9.146;2023-08-08T10:41:47;22.40;93.90
7512;DHT22;9999;48.780;9.146;2023-08-08T10:44:22;21.80;93.80
7512;DHT22;9999;48.780;9.146;2023-08-08T10:46:51;21.30;93.20
7512;DHT22;9999;48.780;9.146;2023-08-08T10:49:19;21.00;91.70
7512;DHT22;9999;48.780;9.146;2023-08-08T10:51:48;21.10;95.30
7512;DHT22;9999;48.780;9.146;2023-08-08T10:54:17;21.20;93.70
7512;DHT22;9999;48.780;9.146;2023-08-08T10:56:49;21.20;93.10
7512;DHT22;9999;48.780;9.146;2023-08-08T10:59:18;21.20;93.50
7512;DHT22;9999;48.780;9.146;2023-08-08T11:01:45;21.50;93.90
7512;DHT22;9999;48.780;9.146;2023-08-08T11:04:13;21.90;92.80
7512;DHT22;9999;48.780;9.146;2023-08-08T11:06:40;22.30;87.90
7512;DHT22;9999;48.780;9.146;2023-08-08T11:09:09;22.40;89.10
7512;DHT22;9999;48.780;9.146;2023-08-08T11:11:37;22.60;92.70
7512;DHT22;9999;48.780;9.146;2023-08-08T11:14:12;22.40;92.20
7512;DHT22;9999;48.780;9.146;2023-08-08T11:16:39;22.30;92.80
7512;DHT22;9999;48.780;9.146;2023-08-08T11:19:06;21.90;91.80
7512;DHT22;9999;48.780;9.146;2023-08-08T11:21:34;21.80;90.90
7512;DHT22;9999;48.780;9.146;2023-08-08T11:24:02;21.70;90.60
7512;DHT22;9999;48.780;9.146;2023-08-08T11:26:30;21.60;91.20
7512;DHT22;9999;48.780;9.146;2023-08-08T11:28:58;21.90;89.70
7512;DHT22;9999;48.780;9.146;2023-08-08T11:31:26;22.20;86.60
7512;DHT22;9999;48.780;9.146;2023-08-08T11:33:54;22.70;88.90
7512;DHT22;9999;48.780;9.146;2023-08-08T11:36:22;23.10;81.70
7512;DHT22;9999;48.780;9.146;2023-08-08T11:38:49;22.90;83.40
7512;DHT22;9999;48.780;9.146;2023-08-08T11:41:19;22.60;86.20
7512;DHT22;9999;48.780;9.146;2023-08-08T11:43:50;22.50;82.20
7512;DHT22;9999;48.780;9.146;2023-08-08T11:46:17;22.70;88.30
7512;DHT22;9999;48.780;9.146;2023-08-08T11:48:46;22.60;85.00
7512;DHT22;9999;48.780;9.146;2023-08-08T11:51:15;22.40;90.20
7512;DHT22;9999;48.780;9.146;2023-08-08T11:53:48;22.50;86.60
7512;DHT22;9999;48.780;9.146;2023-08-08T11:56:16;22.70;91.60
7512;DHT22;9999;48.780;9.146;2023-08-08T11:58:43;22.90;81.30
7512;DHT22;9999;48.780;9.146;2023-08-08T12:01:12;23.20;88.40
7512;DHT22;9999;48.780;9.146;2023-08-08T12:03:40;23.40;86.90
7512;DHT22;9999;48.780;9.146;2023-08-08T12:06:11;23.10;81.70
7512;DHT22;9999;48.780;9.146;2023-08-08T12:08:41;23.20;91.30
7512;DHT22;9999;48.780;9.146;2023-08-08T12:11:08;23.50;79.10
7512;DHT22;9999;48.780;9.146;2023-08-08T12:13:37;23.60;80.20
7512;DHT22;9999;48.780;9.146;2023-08-08T12:16:06;23.70;81.70
7512;DHT22;9999;48.780;9.146;2023-08-08T12:18:35;23.60;81.10
7512;DHT22;9999;48.780;9.146;2023-08-08T12:21:03;23.50;89.60
7512;DHT22;9999;48.780;9.146;2023-08-08T12:23:30;23.60;81.10
7512;DHT22;9999;48.780;9.146;2023-08-08T12:26:02;23.60;81.50
7512;DHT22;9999;48.780;9.146;2023-08-08T12:28:31;23.40;81.00
7512;DHT22;9999;48.780;9.146;2023-08-08T12:30:58;23.20;74.40
7512;DHT22;9999;48.780;9.146;2023-08-08T12:33:25;22.90;82.80
7512;DHT22;9999;48.780;9.146;2023-08-08T12:35:53;22.70;82.40
7512;DHT22;9999;48.780;9.146;2023-08-08T12:38:19;22.50;86.80
7512;DHT22;9999;48.780;9.146;2023-08-08T12:40:47;22.50;83.60
7512;DHT22;9999;48.780;9.146;2023-08-08T12:43:14;22.70;86.40
7512;DHT22;9999;48.780;9.146;2023-08-08T12:45:43;22.90;83.40
7512;DHT22;9999;48.780;9.146;2023-08-08T12:48:10;23.00;85.80
7512;DHT22;9999;48.780;9.146;2023-08-08T12:50:37;23.00;85.00
7512;DHT22;9999;48.780;9.146;2023-08-08T12:53:05;23.00;83.40
7512;DHT22;9999;48.780;9.146;2023-08-08T12:55:33;23.00;81.80
7512;DHT22;9999;48.780;9.146;2023-08-08T12:58:01;23.20;86.80
7512;DHT22;9999;48.780;9.146;2023-08-08T13:00:29;23.40;81.50
7512;DHT22;9999;48.780;9.146;2023-08-08T13:02:56;23.40;80.70
7512;DHT22;9999;48.780;9.146;2023-08-08T13:05:23;23.20;80.60
7512;DHT22;9999;48.780;9.146;2023-08-08T13:07:49;22.90;81.00
7512;DHT22;9999;48.780;9.146;2023-08-08T13:10:17;22.50;82.60
7512;DHT22;9999;48.780;9.146;2023-08-08T13:12:45;22.30;86.20
7512;DHT22;9999;48.780;9.146;2023-08-08T13:15:12;22.30;80.00
7512;DHT22;9999;48.780;9.146;2023-08-08T13:17:39;22.20;87.10
7512;DHT22;9999;48.780;9.146;2023-08-08T13:20:07;22.10;90.80
7512;DHT22;9999;48.780;9.146;2023-08-08T13:22:34;22.00;86.60
7512;DHT22;9999;48.780;9.146;2023-08-08T13:25:01;21.90;89.90
7512;DHT22;9999;48.780;9.146;2023-08-08T13:27:29;21.90;91.00
7512;DHT22;9999;48.780;9.146;2023-08-08T13:29:56;22.20;84.90
7512;DHT22;9999;48.780;9.146;2023-08-08T13:32:23;22.30;90.60
7512;DHT22;9999;48.780;9.146;2023-08-08T13:34:50;22.60;92.70
7512;DHT22;9999;48.780;9.146;2023-08-08T13:37:16;22.80;90.90
7512;DHT22;9999;48.780;9.146;2023-08-08T13:39:43;23.00;91.60
7512;DHT22;9999;48.780;9.146;2023-08-08T13:42:10;23.10;90.00
7512;DHT22;9999;48.780;9.146;2023-08-08T13:44:38;22.70;90.90
7512;DHT22;9999;48.780;9.146;2023-08-08T13:47:05;22.20;90.90
7512;DHT22;9999;48.780;9.146;2023-08-08T13:49:32;22.30;90.70
7512;DHT22;9999;48.780;9.146;2023-08-08T13:52:01;22.70;90.40
7512;DHT22;9999;48.780;9.146;2023-08-08T13:54:28;23.00;88.50
7512;DHT22;9999;48.780;9.146;2023-08-08T13:56:55;23.10;88.00
7512;DHT22;9999;48.780;9.146;2023-08-08T13:59:22;23.10;84.90
7512;DHT22;9999;48.780;9.146;2023-08-08T14:01:50;23.10;81.70
7512;DHT22;9999;48.780;9.146;2023-08-08T14:04:17;23.10;87.20
7512;DHT22;9999;48.780;9.146;2023-08-08T14:06:44;22.80;83.50
7512;DHT22;9999;48.780;9.146;2023-08-08T14:09:11;22.80;83.70
7512;DHT22;9999;48.780;9.146;2023-08-08T14:11:38;22.30;85.60
7512;DHT22;9999;48.780;9.146;2023-08-08T14:14:04;22.00;89.40
7512;DHT22;9999;48.780;9.146;2023-08-08T14:16:31;21.90;89.50
7512;DHT22;9999;48.780;9.146;2023-08-08T14:19:00;22.10;92.80
7512;DHT22;9999;48.780;9.146;2023-08-08T14:21:27;22.20;91.00
7512;DHT22;9999;48.780;9.146;2023-08-08T14:23:54;22.10;87.00
7512;DHT22;9999;48.780;9.146;2023-08-08T14:26:21;21.90;87.40
7512;DHT22;9999;48.780;9.146;2023-08-08T14:28:48;21.80;87.60
7512;DHT22;9999;48.780;9.146;2023-08-08T14:31:14;21.60;90.20
7512;DHT22;9999;48.780;9.146;2023-08-08T14:33:41;21.40;90.00
7512;DHT22;9999;48.780;9.146;2023-08-08T14:36:09;21.30;90.90
7512;DHT22;9999;48.780;9.146;2023-08-08T14:38:36;21.20;90.70
7512;DHT22;9999;48.780;9.146;2023-08-08T14:41:03;21.10;91.60
7512;DHT22;9999;48.780;9.146;2023-08-08T14:43:30;21.30;93.80
7512;DHT22;9999;48.780;9.146;2023-08-08T14:45:57;21.30;92.60
7512;DHT22;9999;48.780;9.146;2023-08-08T14:48:24;21.40;92.70
7512;DHT22;9999;48.780;9.146;2023-08-08T14:50:50;21.30;93.20
7512;DHT22;9999;48.780;9.146;2023-08-08T14:53:19;21.20;92.20
7512;DHT22;9999;48.780;9.146;2023-08-08T14:55:46;21.30;92.20
7512;DHT22;9999;48.780;9.146;2023-08-08T14:58:14;21.30;92.70
7512;DHT22;9999;48.780;9.146;2023-08-08T15:00:40;21.20;94.50
7512;DHT22;9999;48.780;9.146;2023-08-08T15:03:07;21.10;92.50
7512;DHT22;9999;48.780;9.146;2023-08-08T15:05:34;21.10;92.40
7512;DHT22;9999;48.780;9.146;2023-08-08T15:08:01;21.10;91.50
7512;DHT22;9999;48.780;9.146;2023-08-08T15:10:29;21.00;94.60
7512;DHT22;9999;48.780;9.146;2023-08-08T15:12:56;21.00;93.50
7512;DHT22;9999;48.780;9.146;2023-08-08T15:15:23;20.80;96.50
7512;DHT22;9999;48.780;9.146;2023-08-08T15:17:51;20.80;94.20
7512;DHT22;9999;48.780;9.146;2023-08-08T15:20:18;20.70;93.70
7512;DHT22;9999;48.780;9.146;2023-08-08T15:22:45;20.80;95.60
7512;DHT22;9999;48.780;9.146;2023-08-08T15:25:12;20.80;94.60
7512;DHT22;9999;48.780;9.146;2023-08-08T15:27:40;21.10;94.40
7512;DHT22;9999;48.780;9.146;2023-08-08T15:30:07;21.40;93.60
7512;DHT22;9999;48.780;9.146;2023-08-08T15:32:34;21.60;94.00
7512;DHT22;9999;48.780;9.146;2023-08-08T15:35:01;21.60;95.10
7512;DHT22;9999;48.780;9.146;2023-08-08T15:37:28;21.40;93.70
7512;DHT22;9999;48.780;9.146;2023-08-08T15:39:55;21.10;93.20
7512;DHT22;9999;48.780;9.146;2023-08-08T15:42:23;21.10;94.70
7512;DHT22;9999;48.780;9.146;2023-08-08T15:44:51;20.80;94.90
7512;DHT22;9999;48.780;9.146;2023-08-08T15:47:17;20.60;95.40
7512;DHT22;9999;48.780;9.146;2023-08-08T15:49:44;20.50;96.20
7512;DHT22;9999;48.780;9.146;2023-08-08T15:52:11;20.40;96.90
7512;DHT22;9999;48.780;9.146;2023-08-08T15:54:38;20.30;97.80
7512;DHT22;9999;48.780;9.146;2023-08-08T15:57:04;20.40;96.10
7512;DHT22;9999;48.780;9.146;2023-08-08T15:59:31;20.40;97.40
7512;DHT22;9999;48.780;9.146;2023-08-08T16:01:59;20.40;97.70
7512;DHT22;9999;48.780;9.146;2023-08-08T16:04:26;20.50;97.40